createdAt,value
2022-11-19T00:01:26.676Z,18.58
2022-11-19T00:03:54.091Z,19.50
2022-11-19T00:06:24.286Z,23.10
2022-11-19T00:08:51.960Z,23.15
2022-11-19T00:11:40.420Z,18.15
2022-11-19T00:14:12.604Z,24.55
2022-11-19T00:16:39.864Z,25.60
2022-11-19T00:19:06.922Z,25.38
2022-11-19T00:21:33.658Z,26.75
2022-11-19T00:24:00.437Z,25.50
2022-11-19T00:26:27.224Z,36.60
2022-11-19T00:28:54.817Z,41.35
2022-11-19T00:31:21.779Z,36.67
2022-11-19T00:33:54.374Z,60.15
2022-11-19T00:36:22.556Z,50.88
2022-11-19T00:38:50.050Z,50.80
2022-11-19T00:41:16.908Z,36.35
2022-11-19T00:43:50.439Z,34.22
2022-11-19T00:46:19.882Z,36.50
2022-11-19T00:48:48.522Z,50.00
2022-11-19T00:51:17.347Z,39.63
2022-11-19T00:53:44.370Z,59.13
2022-11-19T00:56:14.265Z,33.38
2022-11-19T00:58:42.350Z,30.90
2022-11-19T01:01:10.964Z,40.13
2022-11-19T01:03:38.948Z,33.55
2022-11-19T01:06:06.371Z,28.65
2022-11-19T01:08:33.248Z,29.67
2022-11-19T01:11:12.202Z,35.20
2022-11-19T01:13:39.759Z,26.98
2022-11-19T01:16:12.457Z,31.77
2022-11-19T01:18:41.139Z,39.60
2022-11-19T01:21:10.765Z,22.67
2022-11-19T01:23:39.249Z,24.58
2022-11-19T01:26:07.636Z,27.10
2022-11-19T01:28:35.073Z,33.42
2022-11-19T01:31:17.265Z,20.70
2022-11-19T01:33:44.528Z,31.65
2022-11-19T01:36:17.348Z,25.05
2022-11-19T01:38:44.488Z,24.67
2022-11-19T01:41:11.421Z,24.80
2022-11-19T01:43:59.305Z,28.17
2022-11-19T01:46:44.153Z,35.70
2022-11-19T01:49:14.138Z,27.52
2022-11-19T01:51:48.661Z,28.70
2022-11-19T01:54:55.350Z,39.13
2022-11-19T01:57:22.202Z,36.13
2022-11-19T01:59:51.710Z,32.95
2022-11-19T02:02:25.373Z,31.52
2022-11-19T02:04:53.931Z,32.78
2022-11-19T02:07:26.340Z,24.30
2022-11-19T02:09:53.335Z,22.65
2022-11-19T02:12:32.533Z,28.52
2022-11-19T02:15:23.063Z,25.20
2022-11-19T02:18:10.071Z,28.55
2022-11-19T02:20:46.098Z,19.55
2022-11-19T02:23:34.011Z,21.83
2022-11-19T02:26:09.766Z,25.83
2022-11-19T02:28:36.516Z,22.90
2022-11-19T02:31:11.384Z,25.77
2022-11-19T02:33:43.150Z,25.00
2022-11-19T02:36:14.731Z,40.65
2022-11-19T02:39:12.525Z,32.58
2022-11-19T02:41:50.770Z,29.63
2022-11-19T02:44:43.487Z,26.73
2022-11-19T02:47:18.033Z,18.23
2022-11-19T02:49:45.950Z,24.40
2022-11-19T02:52:16.449Z,18.88
2022-11-19T02:54:43.361Z,18.88
2022-11-19T02:57:12.471Z,26.23
2022-11-19T03:00:20.960Z,41.75
2022-11-19T03:03:14.187Z,20.25
2022-11-19T03:05:47.285Z,19.02
2022-11-19T03:08:14.392Z,31.88
2022-11-19T03:11:14.090Z,13.30
2022-11-19T03:14:24.509Z,15.63
2022-11-19T03:17:08.068Z,15.82
2022-11-19T03:19:43.256Z,10.27
2022-11-19T03:22:28.032Z,21.88
2022-11-19T03:25:09.136Z,20.85
2022-11-19T03:27:42.483Z,33.88
2022-11-19T03:30:11.472Z,17.67
2022-11-19T03:33:02.069Z,13.00
2022-11-19T03:35:47.161Z,19.50
2022-11-19T03:38:20.152Z,26.13
2022-11-19T03:40:49.345Z,13.48
2022-11-19T03:43:19.973Z,13.77
2022-11-19T03:45:49.357Z,16.48
2022-11-19T03:48:18.726Z,13.88
2022-11-19T03:50:57.953Z,17.83
2022-11-19T03:53:25.377Z,14.20
2022-11-19T03:55:59.621Z,14.82
2022-11-19T03:58:27.522Z,15.75
2022-11-19T04:00:54.401Z,17.17
2022-11-19T04:03:21.685Z,15.20
2022-11-19T04:05:48.431Z,18.48
2022-11-19T04:08:15.233Z,15.07
2022-11-19T04:10:42.010Z,14.25
2022-11-19T04:13:08.841Z,16.95
2022-11-19T04:15:36.126Z,12.98
2022-11-19T04:18:02.911Z,13.32
2022-11-19T04:20:30.255Z,13.82
2022-11-19T04:22:57.163Z,12.90
2022-11-19T04:25:23.959Z,15.13
2022-11-19T04:27:50.720Z,22.75
2022-11-19T04:30:17.704Z,32.42
2022-11-19T04:32:44.500Z,15.93
2022-11-19T04:35:11.735Z,17.20
2022-11-19T04:37:38.926Z,14.45
2022-11-19T04:40:06.754Z,25.67
2022-11-19T04:42:33.519Z,25.27
2022-11-19T04:45:00.373Z,27.13
2022-11-19T04:47:27.232Z,17.48
2022-11-19T04:49:53.988Z,16.50
2022-11-19T04:52:20.710Z,16.08
2022-11-19T04:54:47.723Z,22.33
2022-11-19T04:57:14.762Z,15.70
2022-11-19T04:59:41.648Z,16.95
2022-11-19T05:02:08.446Z,21.27
2022-11-19T05:04:35.616Z,19.83
2022-11-19T05:07:02.564Z,15.40
2022-11-19T05:09:29.427Z,19.27
2022-11-19T05:11:56.141Z,22.15
2022-11-19T05:14:28.831Z,18.80
2022-11-19T05:16:57.010Z,19.42
2022-11-19T05:19:23.934Z,27.70
2022-11-19T05:21:51.140Z,19.92
2022-11-19T05:24:18.055Z,13.98
2022-11-19T05:26:44.884Z,16.48
2022-11-19T05:29:12.862Z,18.50
2022-11-19T05:31:39.697Z,18.52
2022-11-19T05:34:07.489Z,14.02
2022-11-19T05:36:37.592Z,15.18
2022-11-19T05:39:05.115Z,24.58
2022-11-19T05:41:34.959Z,15.15
2022-11-19T05:44:02.242Z,14.40
2022-11-19T05:46:29.992Z,14.38
2022-11-19T05:48:56.732Z,15.27
2022-11-19T05:51:23.899Z,14.95
2022-11-19T05:53:51.145Z,19.65
2022-11-19T05:56:21.095Z,15.95
2022-11-19T05:58:48.514Z,12.88
2022-11-19T06:01:15.934Z,14.68
2022-11-19T06:03:43.474Z,15.30
2022-11-19T06:06:13.296Z,17.02
2022-11-19T06:08:40.031Z,15.57
2022-11-19T06:11:07.249Z,19.58
2022-11-19T06:13:34.686Z,14.27
2022-11-19T06:16:01.659Z,16.85
2022-11-19T06:18:34.680Z,17.13
2022-11-19T06:21:01.429Z,14.63
2022-11-19T06:23:28.191Z,13.48
2022-11-19T06:25:55.083Z,14.13
2022-11-19T06:28:21.799Z,14.48
2022-11-19T06:30:48.555Z,13.75
2022-11-19T06:33:15.504Z,13.80
2022-11-19T06:35:42.706Z,14.15
2022-11-19T06:38:09.891Z,13.32
2022-11-19T06:40:36.622Z,12.98
2022-11-19T06:43:03.848Z,14.15
2022-11-19T06:45:31.011Z,14.25
2022-11-19T06:47:57.783Z,15.30
2022-11-19T06:50:24.507Z,15.23
2022-11-19T06:52:51.283Z,19.05
2022-11-19T06:55:18.647Z,18.02
2022-11-19T06:57:45.841Z,22.10
2022-11-19T07:00:13.931Z,16.50
2022-11-19T07:02:41.106Z,24.83
2022-11-19T07:05:08.557Z,20.48
2022-11-19T07:07:35.838Z,21.10
2022-11-19T07:10:02.655Z,15.65
2022-11-19T07:12:29.530Z,22.63
2022-11-19T07:15:01.089Z,18.58
2022-11-19T07:17:31.126Z,18.13
2022-11-19T07:19:57.916Z,16.58
2022-11-19T07:22:25.267Z,16.33
2022-11-19T07:24:53.739Z,19.25
2022-11-19T07:27:20.505Z,17.23
2022-11-19T07:29:47.294Z,20.35
2022-11-19T07:32:14.619Z,16.48
2022-11-19T07:34:41.780Z,20.77
2022-11-19T07:37:08.717Z,16.63
2022-11-19T07:39:35.894Z,18.58
2022-11-19T07:42:21.597Z,14.55
2022-11-19T07:44:52.200Z,21.60
2022-11-19T07:47:22.027Z,19.40
2022-11-19T07:49:48.767Z,15.52
2022-11-19T07:52:15.579Z,20.40
2022-11-19T07:54:42.393Z,18.27
2022-11-19T07:57:09.445Z,22.38
2022-11-19T07:59:36.208Z,16.70
2022-11-19T08:02:03.481Z,19.98
2022-11-19T08:04:30.396Z,15.90
2022-11-19T08:06:57.242Z,18.08
2022-11-19T08:09:24.504Z,17.50
2022-11-19T08:11:51.306Z,17.73
2022-11-19T08:14:18.107Z,17.85
2022-11-19T08:17:03.553Z,21.88
2022-11-19T08:19:30.313Z,16.10
2022-11-19T08:21:57.116Z,17.45
2022-11-19T08:24:24.279Z,11.45
2022-11-19T08:26:51.576Z,12.30
2022-11-19T08:29:21.135Z,17.80
2022-11-19T08:31:48.761Z,12.13
2022-11-19T08:34:17.386Z,13.70
2022-11-19T08:36:44.911Z,16.25
2022-11-19T08:39:11.841Z,14.88
2022-11-19T08:41:57.496Z,12.85
2022-11-19T08:44:24.297Z,13.05
2022-11-19T08:46:51.110Z,13.55
2022-11-19T08:49:18.057Z,8.38
2022-11-19T08:51:47.591Z,6.05
2022-11-19T08:54:14.523Z,6.93
2022-11-19T08:56:41.405Z,8.52
2022-11-19T08:59:08.418Z,8.13
2022-11-19T09:01:35.584Z,6.85
2022-11-19T09:04:02.732Z,5.78
2022-11-19T09:06:29.592Z,5.00
2022-11-19T09:08:56.438Z,5.75
2022-11-19T09:11:23.553Z,7.07
2022-11-19T09:13:50.405Z,6.43
2022-11-19T09:16:17.388Z,9.75
2022-11-19T09:18:44.609Z,7.68
2022-11-19T09:21:12.903Z,7.63
2022-11-19T09:23:41.372Z,8.52
2022-11-19T09:26:13.477Z,9.07
2022-11-19T09:28:41.250Z,8.13
2022-11-19T09:31:14.793Z,11.55
2022-11-19T09:33:43.977Z,11.30
2022-11-19T09:36:12.209Z,9.98
2022-11-19T09:38:40.866Z,10.43
2022-11-19T09:41:13.943Z,9.90
2022-11-19T09:44:02.100Z,11.43
2022-11-19T09:47:16.841Z,12.38
2022-11-19T09:49:57.678Z,11.20
2022-11-19T09:52:25.413Z,12.15
2022-11-19T09:55:18.713Z,8.93
2022-11-19T09:57:51.672Z,9.55
2022-11-19T10:00:30.894Z,10.05
2022-11-19T10:02:58.879Z,14.95
2022-11-19T10:05:51.720Z,13.18
2022-11-19T10:08:37.173Z,12.68
2022-11-19T10:11:21.032Z,12.70
2022-11-19T10:14:12.760Z,15.18
2022-11-19T10:16:39.633Z,13.32
2022-11-19T10:19:34.184Z,12.15
2022-11-19T10:22:19.499Z,12.38
2022-11-19T10:25:00.630Z,15.52
2022-11-19T10:27:57.344Z,18.58
2022-11-19T10:30:28.762Z,14.63
2022-11-19T10:33:17.080Z,15.68
2022-11-19T10:35:51.591Z,14.95
2022-11-19T10:38:36.329Z,17.40
2022-11-19T10:41:20.721Z,18.05
2022-11-19T10:44:11.182Z,19.85
2022-11-19T10:46:38.141Z,20.13
2022-11-19T10:49:10.478Z,21.20
2022-11-19T10:51:40.878Z,17.55
2022-11-19T10:54:22.589Z,17.23
2022-11-19T10:56:51.486Z,22.25
2022-11-19T10:59:23.750Z,25.85
2022-11-19T11:02:12.655Z,20.75
2022-11-19T11:05:00.768Z,23.77
2022-11-19T11:07:54.870Z,21.67
2022-11-19T11:10:33.980Z,27.70
2022-11-19T11:13:57.245Z,21.77
2022-11-19T11:16:44.662Z,19.48
2022-11-19T11:19:21.978Z,20.30
2022-11-19T11:21:53.420Z,18.98
2022-11-19T11:24:21.638Z,23.20
2022-11-19T11:26:48.583Z,41.90
2022-11-19T11:29:15.291Z,23.88
2022-11-19T11:31:44.810Z,17.52
2022-11-19T11:34:31.660Z,16.48
2022-11-19T11:37:00.942Z,18.80
2022-11-19T11:39:52.281Z,31.20
2022-11-19T11:42:20.037Z,21.00
2022-11-19T11:45:07.887Z,21.80
2022-11-19T11:47:39.711Z,20.48
2022-11-19T11:50:18.142Z,17.05
2022-11-19T11:52:51.924Z,14.55
2022-11-19T11:55:24.974Z,17.58
2022-11-19T11:57:54.676Z,22.48
2022-11-19T12:00:41.422Z,21.80
2022-11-19T12:03:11.543Z,25.77
2022-11-19T12:06:03.884Z,20.52
2022-11-19T12:08:52.747Z,25.98
2022-11-19T12:11:56.095Z,20.48
2022-11-19T12:14:23.250Z,19.38
2022-11-19T12:17:35.293Z,15.10
2022-11-19T12:20:21.616Z,16.08
2022-11-19T12:23:12.876Z,15.02
2022-11-19T12:26:02.936Z,18.77
2022-11-19T12:29:01.536Z,25.73
2022-11-19T12:32:13.489Z,24.40
2022-11-19T12:35:02.005Z,22.48
2022-11-19T12:37:50.242Z,20.60
2022-11-19T12:41:09.454Z,19.17
2022-11-19T12:43:57.071Z,18.52
2022-11-19T12:46:32.317Z,14.90
2022-11-19T12:48:59.080Z,27.77
2022-11-19T12:51:44.156Z,36.35
2022-11-19T12:54:35.136Z,21.75
2022-11-19T12:57:19.110Z,13.23
2022-11-19T13:00:02.669Z,14.38
2022-11-19T13:02:40.197Z,13.45
2022-11-19T13:05:22.546Z,13.93
2022-11-19T13:08:01.645Z,13.70
2022-11-19T13:10:43.619Z,14.43
2022-11-19T13:13:16.801Z,16.50
2022-11-19T13:15:48.264Z,14.85
2022-11-19T13:18:18.180Z,16.67
2022-11-19T13:20:58.010Z,13.90
2022-11-19T13:23:30.478Z,23.02
2022-11-19T13:26:23.123Z,18.88
2022-11-19T13:28:59.738Z,17.83
2022-11-19T13:31:48.987Z,13.15
2022-11-19T13:34:30.424Z,14.88
2022-11-19T13:37:37.927Z,19.33
2022-11-19T13:40:32.477Z,17.13
2022-11-19T13:43:31.951Z,19.77
2022-11-19T13:46:23.418Z,17.33
2022-11-19T13:49:00.712Z,16.17
2022-11-19T13:51:43.030Z,16.63
2022-11-19T13:54:26.749Z,19.58
2022-11-19T13:56:57.107Z,33.67
2022-11-19T13:59:36.721Z,41.83
2022-11-19T14:02:24.875Z,30.70
2022-11-19T14:05:04.086Z,23.67
2022-11-19T14:07:37.772Z,19.38
2022-11-19T14:10:32.119Z,19.35
2022-11-19T14:13:06.752Z,21.75
2022-11-19T14:16:11.090Z,22.60
2022-11-19T14:19:05.649Z,35.45
2022-11-19T14:21:54.209Z,27.67
2022-11-19T14:24:45.296Z,41.80
2022-11-19T14:27:18.343Z,43.50
2022-11-19T14:29:45.477Z,26.35
2022-11-19T14:32:12.190Z,27.48
2022-11-19T14:35:02.583Z,23.23
2022-11-19T14:37:45.602Z,20.13
2022-11-19T14:40:23.287Z,21.80
2022-11-19T14:43:20.810Z,28.63
2022-11-19T14:46:03.011Z,19.27
2022-11-19T14:48:31.250Z,18.75
2022-11-19T14:51:11.062Z,18.65
2022-11-19T14:53:48.461Z,19.42
2022-11-19T14:56:17.094Z,21.60
2022-11-19T14:59:20.859Z,18.13
2022-11-19T15:02:04.849Z,22.38
2022-11-19T15:04:42.009Z,24.52
2022-11-19T15:07:12.491Z,28.27
2022-11-19T15:10:10.532Z,36.58
2022-11-19T15:12:44.052Z,44.00
2022-11-19T15:15:20.285Z,33.15
2022-11-19T15:17:59.156Z,40.67
2022-11-19T15:20:50.923Z,41.58
2022-11-19T15:23:43.716Z,30.52
2022-11-19T15:26:52.600Z,36.70
2022-11-19T15:29:50.221Z,39.83
2022-11-19T15:32:30.842Z,31.70
2022-11-19T15:35:12.790Z,44.17
2022-11-19T15:38:19.932Z,33.53
2022-11-19T15:40:48.412Z,36.55
2022-11-19T15:43:37.827Z,38.00
2022-11-19T15:46:11.455Z,39.05
2022-11-19T15:48:40.979Z,31.20
2022-11-19T15:51:13.256Z,46.35
2022-11-19T15:53:58.348Z,42.30
2022-11-19T15:56:26.800Z,38.35
2022-11-19T15:58:53.900Z,45.45
2022-11-19T16:01:22.110Z,49.50
2022-11-19T16:03:51.951Z,45.80
2022-11-19T16:06:39.746Z,40.40
2022-11-19T16:09:07.290Z,38.92
2022-11-19T16:11:55.390Z,37.03
2022-11-19T16:14:42.033Z,34.13
2022-11-19T16:17:39.766Z,36.75
2022-11-19T16:20:10.110Z,43.88
2022-11-19T16:22:44.683Z,37.35
2022-11-19T16:25:21.849Z,31.83
2022-11-19T16:27:48.643Z,32.33
2022-11-19T16:30:24.391Z,27.23
2022-11-19T16:32:51.371Z,37.25
2022-11-19T16:35:32.334Z,33.45
2022-11-19T16:38:01.559Z,29.13
2022-11-19T16:40:49.306Z,46.38
2022-11-19T16:43:17.142Z,38.53
2022-11-19T16:45:46.780Z,43.13
2022-11-19T16:48:43.034Z,32.25
2022-11-19T16:51:40.388Z,33.20
2022-11-19T16:54:11.295Z,35.83
2022-11-19T16:56:45.836Z,33.97
2022-11-19T16:59:25.614Z,34.60
2022-11-19T17:01:56.032Z,35.80
2022-11-19T17:04:30.036Z,42.28
2022-11-19T17:06:58.633Z,41.85
2022-11-19T17:09:37.888Z,39.35
2022-11-19T17:12:22.772Z,27.58
2022-11-19T17:14:52.834Z,42.90
2022-11-19T17:17:41.674Z,29.90
2022-11-19T17:20:27.351Z,26.60
2022-11-19T17:22:54.443Z,25.02
2022-11-19T17:25:21.264Z,23.10
2022-11-19T17:27:55.315Z,18.63
2022-11-19T17:30:30.926Z,18.60
2022-11-19T17:33:03.854Z,17.70
2022-11-19T17:35:30.959Z,17.38
2022-11-19T17:37:59.890Z,23.55
2022-11-19T17:40:26.882Z,34.15
2022-11-19T17:43:12.196Z,21.30
2022-11-19T17:45:38.926Z,24.23
2022-11-19T17:48:23.344Z,28.33
2022-11-19T17:50:51.647Z,31.90
2022-11-19T17:53:19.264Z,22.63
2022-11-19T17:55:47.800Z,26.05
2022-11-19T17:58:14.928Z,26.27
2022-11-19T18:00:42.314Z,28.90
2022-11-19T18:03:16.126Z,30.40
2022-11-19T18:05:47.508Z,29.83
2022-11-19T18:08:17.746Z,25.58
2022-11-19T18:10:46.822Z,22.80
2022-11-19T18:13:18.858Z,19.35
2022-11-19T18:15:45.632Z,19.88
2022-11-19T18:18:12.435Z,20.92
2022-11-19T18:20:39.758Z,19.23
2022-11-19T18:23:06.510Z,28.15
2022-11-19T18:25:33.648Z,27.48
2022-11-19T18:28:00.402Z,20.88
2022-11-19T18:30:27.184Z,32.00
2022-11-19T18:32:54.316Z,30.42
2022-11-19T18:35:22.497Z,29.25
2022-11-19T18:37:49.416Z,25.10
2022-11-19T18:40:16.236Z,30.90
2022-11-19T18:43:03.171Z,25.50
2022-11-19T18:45:30.745Z,25.73
2022-11-19T18:48:00.717Z,33.17
2022-11-19T18:50:30.541Z,20.08
2022-11-19T18:52:59.539Z,26.48
2022-11-19T18:55:26.621Z,25.35
2022-11-19T18:57:54.406Z,25.77
2022-11-19T19:00:21.277Z,23.75
2022-11-19T19:02:48.276Z,21.45
2022-11-19T19:05:15.267Z,22.38
2022-11-19T19:07:42.119Z,31.45
2022-11-19T19:10:09.753Z,29.27
2022-11-19T19:12:37.016Z,28.15
2022-11-19T19:15:04.024Z,31.73
2022-11-19T19:17:31.299Z,16.35
2022-11-19T19:20:01.428Z,18.95
2022-11-19T19:22:29.385Z,26.67
2022-11-19T19:24:58.340Z,28.23
2022-11-19T19:27:26.012Z,28.05
2022-11-19T19:29:52.826Z,26.48
2022-11-19T19:32:20.400Z,21.00
2022-11-19T19:34:47.660Z,18.73
2022-11-19T19:37:14.476Z,17.80
2022-11-19T19:39:41.202Z,19.88
2022-11-19T19:42:08.126Z,18.92
2022-11-19T19:44:35.068Z,15.75
2022-11-19T19:47:02.330Z,18.88
2022-11-19T19:49:29.096Z,16.50
2022-11-19T19:51:56.533Z,16.42
2022-11-19T19:54:23.724Z,13.05
2022-11-19T19:56:53.152Z,12.02
2022-11-19T19:59:20.178Z,13.38
2022-11-19T20:01:47.511Z,14.77
2022-11-19T20:04:14.502Z,25.27
2022-11-19T20:06:45.366Z,15.90
2022-11-19T20:09:12.729Z,12.38
2022-11-19T20:11:40.010Z,14.30
2022-11-19T20:14:06.944Z,12.55
2022-11-19T20:16:35.155Z,11.07
2022-11-19T20:19:02.475Z,11.43
2022-11-19T20:21:33.918Z,9.07
2022-11-19T20:24:00.971Z,6.90
2022-11-19T20:26:30.145Z,7.93
2022-11-19T20:28:59.381Z,6.60
2022-11-19T20:31:27.025Z,8.73
2022-11-19T20:33:57.181Z,10.55
2022-11-19T20:36:26.611Z,11.43
2022-11-19T20:38:53.895Z,10.13
2022-11-19T20:41:40.597Z,6.88
2022-11-19T20:44:22.615Z,7.80
2022-11-19T20:46:57.220Z,9.35
2022-11-19T20:49:26.159Z,13.80
2022-11-19T20:51:54.537Z,12.80
2022-11-19T20:54:22.244Z,13.13
2022-11-19T20:56:51.095Z,9.80
2022-11-19T20:59:19.284Z,12.50
2022-11-19T21:01:49.469Z,13.45
2022-11-19T21:04:17.323Z,13.73
2022-11-19T21:06:44.252Z,13.30
2022-11-19T21:09:11.921Z,16.65
2022-11-19T21:11:38.869Z,14.60
2022-11-19T21:14:05.732Z,19.77
2022-11-19T21:16:33.014Z,14.80
2022-11-19T21:19:00.136Z,13.00
2022-11-19T21:21:27.512Z,14.40
2022-11-19T21:23:55.173Z,18.48
2022-11-19T21:26:24.206Z,12.15
2022-11-19T21:28:54.203Z,12.27
2022-11-19T21:31:38.025Z,13.27
2022-11-19T21:34:17.883Z,13.13
2022-11-19T21:36:45.656Z,13.35
2022-11-19T21:39:12.617Z,11.35
2022-11-19T21:41:39.464Z,10.80
2022-11-19T21:44:06.633Z,11.68
2022-11-19T21:46:34.633Z,10.52
2022-11-19T21:49:02.290Z,10.55
2022-11-19T21:51:29.153Z,14.27
2022-11-19T21:53:57.299Z,12.38
2022-11-19T21:56:25.573Z,10.95
2022-11-19T21:58:52.414Z,8.65
2022-11-19T22:01:19.481Z,9.32
2022-11-19T22:03:46.829Z,9.50
2022-11-19T22:06:13.743Z,8.35
2022-11-19T22:08:41.826Z,12.35
2022-11-19T22:11:28.705Z,11.13
2022-11-19T22:14:04.621Z,9.60
2022-11-19T22:16:37.569Z,7.60
2022-11-19T22:19:05.691Z,7.03
2022-11-19T22:21:33.469Z,8.02
2022-11-19T22:24:00.520Z,8.45
2022-11-19T22:26:28.072Z,9.35
2022-11-19T22:28:55.341Z,8.55
2022-11-19T22:31:23.277Z,7.68
2022-11-19T22:33:51.800Z,7.85
2022-11-19T22:36:20.330Z,6.63
2022-11-19T22:38:47.649Z,5.88
2022-11-19T22:41:19.456Z,6.40
2022-11-19T22:43:47.041Z,6.68
2022-11-19T22:46:14.746Z,5.95
2022-11-19T22:48:41.983Z,6.70
2022-11-19T22:51:14.304Z,5.15
2022-11-19T22:53:42.043Z,4.90
2022-11-19T22:56:11.635Z,4.85
2022-11-19T22:58:42.368Z,4.15
2022-11-19T23:01:30.701Z,3.97
2022-11-19T23:03:59.344Z,3.65
2022-11-19T23:06:26.229Z,4.45
2022-11-19T23:08:53.154Z,3.95
2022-11-19T23:11:41.599Z,5.38
2022-11-19T23:14:11.527Z,4.68
2022-11-19T23:16:39.174Z,5.80
2022-11-19T23:19:06.532Z,4.05
2022-11-19T23:21:33.532Z,7.32
2022-11-19T23:24:01.145Z,4.28
2022-11-19T23:26:30.058Z,7.32
2022-11-19T23:28:57.423Z,5.45
2022-11-19T23:31:29.316Z,7.25
2022-11-19T23:33:59.306Z,5.63
2022-11-19T23:36:32.857Z,4.82
2022-11-19T23:38:59.920Z,4.88
2022-11-19T23:41:28.334Z,7.22
2022-11-19T23:43:55.820Z,5.90
2022-11-19T23:46:25.819Z,6.57
2022-11-19T23:48:53.002Z,4.35
2022-11-19T23:51:22.470Z,3.63
2022-11-19T23:53:50.481Z,4.13
2022-11-19T23:56:20.812Z,4.00
2022-11-19T23:58:48.243Z,4.00
